Map

Track Data

SID SEASON NUMBER BASIN SUBBASIN NAME ISO_TIME NATURE LAT LON WMO_WIND WMO_PRES WMO_AGENCY TRACK_TYPE DIST2LAND LANDFALL IFLAG USA_AGENCY USA_ATCF_ID USA_LAT USA_LON USA_RECORD USA_STATUS USA_WIND USA_PRES USA_SSHS USA_R34_NE USA_R34_SE USA_R34_SW USA_R34_NW USA_R50_NE USA_R50_SE USA_R50_SW USA_R50_NW USA_R64_NE USA_R64_SE USA_R64_SW USA_R64_NW USA_POCI USA_ROCI USA_RMW USA_EYE TOKYO_LAT TOKYO_LON TOKYO_GRADE TOKYO_WIND TOKYO_PRES TOKYO_R50_DIR TOKYO_R50_LONG TOKYO_R50_SHORT TOKYO_R30_DIR TOKYO_R30_LONG TOKYO_R30_SHORT TOKYO_LAND CMA_LAT CMA_LON CMA_CAT CMA_WIND CMA_PRES HKO_LAT HKO_LON HKO_CAT HKO_WIND HKO_PRES NEWDELHI_LAT NEWDELHI_LON NEWDELHI_GRADE NEWDELHI_WIND NEWDELHI_PRES NEWDELHI_CI NEWDELHI_DP NEWDELHI_POCI REUNION_LAT REUNION_LON REUNION_TYPE REUNION_WIND REUNION_PRES REUNION_TNUM REUNION_CI REUNION_RMW REUNION_R34_NE REUNION_R34_SE REUNION_R34_SW REUNION_R34_NW REUNION_R50_NE REUNION_R50_SE REUNION_R50_SW REUNION_R50_NW REUNION_R64_NE REUNION_R64_SE REUNION_R64_SW REUNION_R64_NW BOM_LAT BOM_LON BOM_TYPE BOM_WIND BOM_PRES BOM_TNUM BOM_CI BOM_RMW BOM_R34_NE BOM_R34_SE BOM_R34_SW BOM_R34_NW BOM_R50_NE BOM_R50_SE BOM_R50_SW BOM_R50_NW BOM_R64_NE BOM_R64_SE BOM_R64_SW BOM_R64_NW BOM_ROCI BOM_POCI BOM_EYE BOM_POS_METHOD BOM_PRES_METHOD NADI_LAT NADI_LON NADI_CAT NADI_WIND NADI_PRES WELLINGTON_LAT WELLINGTON_LON WELLINGTON_WIND WELLINGTON_PRES DS824_LAT DS824_LON DS824_STAGE DS824_WIND DS824_PRES TD9636_LAT TD9636_LON TD9636_STAGE TD9636_WIND TD9636_PRES TD9635_LAT TD9635_LON TD9635_WIND TD9635_PRES TD9635_ROCI NEUMANN_LAT NEUMANN_LON NEUMANN_CLASS NEUMANN_WIND NEUMANN_PRES MLC_LAT MLC_LON MLC_CLASS MLC_WIND MLC_PRES USA_GUST BOM_GUST BOM_GUST_PER REUNION_GUST REUNION_GUST_PER USA_SEAHGT USA_SEARAD_NE USA_SEARAD_SE USA_SEARAD_SW USA_SEARAD_NW STORM_SPEED STORM_DIR
1943271N29294 1943 67 NA NA NOT_NAMED 1943-09-28 06:00:00 TS 29.0000 -65.8000 35 hurdat_atl main 1132 1132 O_____________ hurdat_atl AL071943 29.0000 -65.8000 TS 35 0 10 333
1943271N29294 1943 67 NA NA NOT_NAMED 1943-09-28 09:00:00 TS 29.4426 -66.0597 main 1131 1073 P_____________ AL071943 29.4426 -66.0597 TS 35 0 11 336
1943271N29294 1943 67 NA NA NOT_NAMED 1943-09-28 12:00:00 TS 30.0000 -66.3000 35 hurdat_atl main 1073 1009 O_____________ hurdat_atl AL071943 30.0000 -66.3000 TS 35 0 14 343
1943271N29294 1943 67 NA NA NOT_NAMED 1943-09-28 15:00:00 TS 30.7349 -66.5076 main 1009 943 P_____________ AL071943 30.7349 -66.5076 TS 37 0 15 347
1943271N29294 1943 67 NA NA NOT_NAMED 1943-09-28 18:00:00 TS 31.5000 -66.7000 40 hurdat_atl main 943 892 O_____________ hurdat_atl AL071943 31.5000 -66.7000 TS 40 0 14 346
1943271N29294 1943 67 NA NA NOT_NAMED 1943-09-28 21:00:00 TS 32.1299 -66.9003 main 892 843 P_____________ AL071943 32.1299 -66.9003 TS 40 0 13 344
1943271N29294 1943 67 NA NA NOT_NAMED 1943-09-29 00:00:00 TS 32.7000 -67.1000 40 hurdat_atl main 843 803 O_____________ hurdat_atl AL071943 32.7000 -67.1000 TS 40 0 12 344
1943271N29294 1943 67 NA NA NOT_NAMED 1943-09-29 03:00:00 TS 33.2798 -67.2780 main 799 761 P_____________ AL071943 33.2798 -67.2780 TS 42 0 12 343
1943271N29294 1943 67 NA NA NOT_NAMED 1943-09-29 06:00:00 TS 33.8000 -67.5000 45 hurdat_atl main 761 721 O_____________ hurdat_atl AL071943 33.8000 -67.5000 TS 45 0 11 335
1943271N29294 1943 67 NA NA NOT_NAMED 1943-09-29 09:00:00 TS 34.2373 -67.8053 main 721 675 P_____________ AL071943 34.2373 -67.8053 TS 45 0 10 324
1943271N29294 1943 67 NA NA NOT_NAMED 1943-09-29 12:00:00 TS 34.6000 -68.2000 45 hurdat_atl main 675 632 O_____________ hurdat_atl AL071943 34.6000 -68.2000 TS 45 0 10 314
1943271N29294 1943 67 NA NA NOT_NAMED 1943-09-29 15:00:00 TS 34.9223 -68.6628 main 623 572 P_____________ AL071943 34.9223 -68.6628 TS 47 0 10 306
1943271N29294 1943 67 NA NA NOT_NAMED 1943-09-29 18:00:00 TS 35.2000 -69.2000 50 hurdat_atl main 572 523 O_____________ hurdat_atl AL071943 35.2000 -69.2000 TS 50 0 11 301
1943271N29294 1943 67 NA NA NOT_NAMED 1943-09-29 21:00:00 TS 35.4648 -69.7778 main 514 459 P_____________ AL071943 35.4648 -69.7778 TS 50 0 11 297
1943271N29294 1943 67 NA NA NOT_NAMED 1943-09-30 00:00:00 TS 35.7000 -70.4000 50 hurdat_atl main 459 404 O_____________ hurdat_atl AL071943 35.7000 -70.4000 TS 50 0 11 293
1943271N29294 1943 67 NA NA NOT_NAMED 1943-09-30 03:00:00 TS 35.9073 -71.0429 main 404 342 P_____________ AL071943 35.9073 -71.0429 TS 50 0 11 291
1943271N29294 1943 67 NA NA NOT_NAMED 1943-09-30 06:00:00 TS 36.1000 -71.7000 50 hurdat_atl main 342 292 O_____________ hurdat_atl AL071943 36.1000 -71.7000 TS 50 0 11 290
1943271N29294 1943 67 NA NA NOT_NAMED 1943-09-30 09:00:00 TS 36.2919 -72.3357 main 292 237 P_____________ AL071943 36.2919 -72.3357 TS 52 0 11 291
1943271N29294 1943 67 NA NA NOT_NAMED 1943-09-30 12:00:00 TS 36.5000 -73.0000 55 hurdat_atl main 237 186 O_____________ hurdat_atl AL071943 36.5000 -73.0000 TS 55 0 12 291
1943271N29294 1943 67 NA NA NOT_NAMED 1943-09-30 15:00:00 TS 36.7277 -73.7578 main 178 119 P_____________ AL071943 36.7277 -73.7578 TS 55 0 13 293
1943271N29294 1943 67 NA NA NOT_NAMED 1943-09-30 18:00:00 TS 37.0000 -74.5000 55 hurdat_atl main 119 57 O_____________ hurdat_atl AL071943 37.0000 -74.5000 TS 55 0 13 298
1943271N29294 1943 67 NA NA NOT_NAMED 1943-09-30 21:00:00 TS 37.3271 -75.1453 main 57 0 P_____________ AL071943 37.3271 -75.1453 TS 55 0 12 306
1943271N29294 1943 67 NA NA NOT_NAMED 1943-10-01 00:00:00 TS 37.7000 -75.7000 55 997 hurdat_atl main 0 0 O_____________ hurdat_atl AL071943 37.7000 -75.7000 L TS 55 997 0 11 311
1943271N29294 1943 67 NA NA NOT_NAMED 1943-10-01 03:00:00 TS 38.0775 -76.2249 main 14 0 P_____________ AL071943 38.0775 -76.2249 TS 50 0 11 318
1943271N29294 1943 67 NA NA NOT_NAMED 1943-10-01 06:00:00 TS 38.5000 -76.6000 45 hurdat_atl main 0 0 O_____________ hurdat_atl AL071943 38.5000 -76.6000 TS 45 0 10 336
1943271N29294 1943 67 NA NA NOT_NAMED 1943-10-01 09:00:00 TS 38.9847 -76.7535 main 0 0 P_____________ AL071943 38.9847 -76.7535 TS 40 0 10 351
1943271N29294 1943 67 NA NA NOT_NAMED 1943-10-01 12:00:00 TS 39.5000 -76.8000 35 hurdat_atl main 0 0 O_____________ hurdat_atl AL071943 39.5000 -76.8000 TS 35 0 10 354
1943271N29294 1943 67 NA NA NOT_NAMED 1943-10-01 15:00:00 TS 40.0000 -76.9001 main 0 0 P_____________ AL071943 40.0000 -76.9001 TS 32 -1 10 351
1943271N29294 1943 67 NA NA NOT_NAMED 1943-10-01 18:00:00 TS 40.5000 -77.0000 30 hurdat_atl main 0 0 O_____________ hurdat_atl AL071943 40.5000 -77.0000 TD 30 -1 10 351
1943271N29294 1943 67 NA NA NOT_NAMED 1943-10-01 21:00:00 TS 41.0000 -77.0997 main 0 0 P_____________ AL071943 41.0000 -77.0997 TD 27 -1 10 351
1943271N29294 1943 67 NA NA NOT_NAMED 1943-10-02 00:00:00 TS 41.5000 -77.2000 25 hurdat_atl main 0 O_____________ hurdat_atl AL071943 41.5000 -77.2000 TD 25 -1 10 351

About IBTrACS Database

This database is a web-friendly format of International Best Track Archive for Climate Stewardship (IBTrACS), a global best track data archive curated by NOAA dating back to 1842.

Updated: 2021-10-08